sensor_id;sensor_type;location;lat;lon;timestamp;P1;durP1;ratioP1;P2;durP2;ratioP2
7487;SDS011;3785;52.260;4.728;2023-04-25T00:00:54;5.38;;;1.83;;
7487;SDS011;3785;52.260;4.728;2023-04-25T00:04:14;6.40;;;1.92;;
7487;SDS011;3785;52.260;4.728;2023-04-25T00:07:35;4.68;;;2.20;;
7487;SDS011;3785;52.260;4.728;2023-04-25T00:10:56;2.85;;;1.73;;
7487;SDS011;3785;52.260;4.728;2023-04-25T00:14:17;4.00;;;1.30;;
7487;SDS011;3785;52.260;4.728;2023-04-25T00:17:38;4.78;;;1.50;;
7487;SDS011;3785;52.260;4.728;2023-04-25T00:20:58;4.43;;;1.25;;
7487;SDS011;3785;52.260;4.728;2023-04-25T00:24:19;6.82;;;1.80;;
7487;SDS011;3785;52.260;4.728;2023-04-25T00:27:40;3.40;;;1.38;;
7487;SDS011;3785;52.260;4.728;2023-04-25T00:31:01;5.15;;;1.85;;
7487;SDS011;3785;52.260;4.728;2023-04-25T00:34:22;5.78;;;1.50;;
7487;SDS011;3785;52.260;4.728;2023-04-25T00:37:42;1.67;;;1.15;;
7487;SDS011;3785;52.260;4.728;2023-04-25T00:41:04;6.13;;;1.90;;
7487;SDS011;3785;52.260;4.728;2023-04-25T00:44:26;5.30;;;1.75;;
7487;SDS011;3785;52.260;4.728;2023-04-25T00:47:49;5.45;;;1.80;;
7487;SDS011;3785;52.260;4.728;2023-04-25T00:51:10;4.88;;;1.40;;
7487;SDS011;3785;52.260;4.728;2023-04-25T00:54:36;7.13;;;1.70;;
7487;SDS011;3785;52.260;4.728;2023-04-25T00:57:57;4.90;;;1.30;;
7487;SDS011;3785;52.260;4.728;2023-04-25T01:01:18;5.95;;;1.45;;
7487;SDS011;3785;52.260;4.728;2023-04-25T01:04:38;8.00;;;1.65;;
7487;SDS011;3785;52.260;4.728;2023-04-25T01:07:59;7.10;;;1.52;;
7487;SDS011;3785;52.260;4.728;2023-04-25T01:11:20;11.05;;;2.72;;
7487;SDS011;3785;52.260;4.728;2023-04-25T01:14:40;4.57;;;1.40;;
7487;SDS011;3785;52.260;4.728;2023-04-25T01:18:01;5.63;;;1.38;;
7487;SDS011;3785;52.260;4.728;2023-04-25T01:21:21;3.75;;;1.25;;
7487;SDS011;3785;52.260;4.728;2023-04-25T01:24:42;6.28;;;1.50;;
7487;SDS011;3785;52.260;4.728;2023-04-25T01:28:03;5.32;;;1.27;;
7487;SDS011;3785;52.260;4.728;2023-04-25T01:31:24;4.57;;;1.50;;
7487;SDS011;3785;52.260;4.728;2023-04-25T01:34:44;3.47;;;1.20;;
7487;SDS011;3785;52.260;4.728;2023-04-25T01:38:05;4.53;;;1.35;;
7487;SDS011;3785;52.260;4.728;2023-04-25T01:41:26;3.92;;;1.38;;
7487;SDS011;3785;52.260;4.728;2023-04-25T01:44:47;4.53;;;1.20;;
7487;SDS011;3785;52.260;4.728;2023-04-25T01:48:11;8.23;;;1.73;;
7487;SDS011;3785;52.260;4.728;2023-04-25T01:51:32;4.53;;;1.40;;
7487;SDS011;3785;52.260;4.728;2023-04-25T01:54:53;5.82;;;1.15;;
7487;SDS011;3785;52.260;4.728;2023-04-25T01:58:14;9.52;;;1.38;;
7487;SDS011;3785;52.260;4.728;2023-04-25T02:01:35;4.97;;;1.48;;
7487;SDS011;3785;52.260;4.728;2023-04-25T02:04:55;4.47;;;1.30;;
7487;SDS011;3785;52.260;4.728;2023-04-25T02:08:16;7.47;;;1.40;;
7487;SDS011;3785;52.260;4.728;2023-04-25T02:11:37;6.22;;;1.63;;
7487;SDS011;3785;52.260;4.728;2023-04-25T02:14:58;5.50;;;1.20;;
7487;SDS011;3785;52.260;4.728;2023-04-25T02:18:18;2.85;;;1.10;;
7487;SDS011;3785;52.260;4.728;2023-04-25T02:21:40;2.83;;;1.30;;
7487;SDS011;3785;52.260;4.728;2023-04-25T02:25:01;3.25;;;1.10;;
7487;SDS011;3785;52.260;4.728;2023-04-25T02:28:24;2.40;;;0.95;;
7487;SDS011;3785;52.260;4.728;2023-04-25T02:31:45;2.88;;;0.88;;
7487;SDS011;3785;52.260;4.728;2023-04-25T02:35:06;3.60;;;1.10;;
7487;SDS011;3785;52.260;4.728;2023-04-25T02:38:27;4.28;;;1.27;;
7487;SDS011;3785;52.260;4.728;2023-04-25T02:41:47;5.45;;;1.42;;
7487;SDS011;3785;52.260;4.728;2023-04-25T02:45:08;8.10;;;1.25;;
7487;SDS011;3785;52.260;4.728;2023-04-25T02:48:29;5.22;;;1.27;;
7487;SDS011;3785;52.260;4.728;2023-04-25T02:51:50;5.18;;;1.20;;
7487;SDS011;3785;52.260;4.728;2023-04-25T02:55:10;4.22;;;1.17;;
7487;SDS011;3785;52.260;4.728;2023-04-25T02:58:32;5.15;;;1.38;;
7487;SDS011;3785;52.260;4.728;2023-04-25T03:01:52;5.82;;;1.38;;
7487;SDS011;3785;52.260;4.728;2023-04-25T03:05:13;3.97;;;0.93;;
7487;SDS011;3785;52.260;4.728;2023-04-25T03:08:33;3.67;;;1.05;;
7487;SDS011;3785;52.260;4.728;2023-04-25T03:11:54;4.45;;;1.33;;
7487;SDS011;3785;52.260;4.728;2023-04-25T03:15:15;4.50;;;1.75;;
7487;SDS011;3785;52.260;4.728;2023-04-25T03:18:36;7.55;;;1.40;;
7487;SDS011;3785;52.260;4.728;2023-04-25T03:21:57;2.88;;;1.00;;
7487;SDS011;3785;52.260;4.728;2023-04-25T03:25:17;3.15;;;1.00;;
7487;SDS011;3785;52.260;4.728;2023-04-25T03:28:38;7.40;;;1.38;;
7487;SDS011;3785;52.260;4.728;2023-04-25T03:32:00;6.50;;;1.20;;
7487;SDS011;3785;52.260;4.728;2023-04-25T03:35:20;1.80;;;0.93;;
7487;SDS011;3785;52.260;4.728;2023-04-25T03:38:41;3.35;;;0.85;;
7487;SDS011;3785;52.260;4.728;2023-04-25T03:42:01;4.80;;;1.10;;
7487;SDS011;3785;52.260;4.728;2023-04-25T03:45:22;2.90;;;1.30;;
7487;SDS011;3785;52.260;4.728;2023-04-25T03:48:43;5.43;;;1.20;;
7487;SDS011;3785;52.260;4.728;2023-04-25T03:52:04;4.00;;;1.25;;
7487;SDS011;3785;52.260;4.728;2023-04-25T03:55:24;6.25;;;1.38;;
7487;SDS011;3785;52.260;4.728;2023-04-25T03:58:45;3.33;;;0.95;;
7487;SDS011;3785;52.260;4.728;2023-04-25T04:02:05;2.00;;;1.00;;
7487;SDS011;3785;52.260;4.728;2023-04-25T04:05:26;2.53;;;0.90;;
7487;SDS011;3785;52.260;4.728;2023-04-25T04:08:47;4.03;;;0.95;;
7487;SDS011;3785;52.260;4.728;2023-04-25T04:12:07;0.90;;;0.63;;
7487;SDS011;3785;52.260;4.728;2023-04-25T04:15:28;1.30;;;0.75;;
7487;SDS011;3785;52.260;4.728;2023-04-25T04:18:49;2.80;;;0.50;;
7487;SDS011;3785;52.260;4.728;2023-04-25T04:22:10;2.97;;;0.82;;
7487;SDS011;3785;52.260;4.728;2023-04-25T04:25:30;1.73;;;0.88;;
7487;SDS011;3785;52.260;4.728;2023-04-25T04:28:51;2.63;;;1.00;;
7487;SDS011;3785;52.260;4.728;2023-04-25T04:32:14;3.15;;;1.10;;
7487;SDS011;3785;52.260;4.728;2023-04-25T04:35:35;1.73;;;0.60;;
7487;SDS011;3785;52.260;4.728;2023-04-25T04:38:56;2.92;;;0.93;;
7487;SDS011;3785;52.260;4.728;2023-04-25T04:42:17;2.60;;;0.80;;
7487;SDS011;3785;52.260;4.728;2023-04-25T04:45:37;1.10;;;0.70;;
7487;SDS011;3785;52.260;4.728;2023-04-25T04:49:00;3.10;;;1.05;;
7487;SDS011;3785;52.260;4.728;2023-04-25T04:52:20;3.85;;;1.00;;
7487;SDS011;3785;52.260;4.728;2023-04-25T04:55:41;2.13;;;0.98;;
7487;SDS011;3785;52.260;4.728;2023-04-25T04:59:02;1.15;;;0.75;;
7487;SDS011;3785;52.260;4.728;2023-04-25T05:02:23;2.00;;;0.60;;
7487;SDS011;3785;52.260;4.728;2023-04-25T05:05:43;1.45;;;0.70;;
7487;SDS011;3785;52.260;4.728;2023-04-25T05:09:05;5.53;;;1.15;;
7487;SDS011;3785;52.260;4.728;2023-04-25T05:12:26;4.40;;;0.90;;
7487;SDS011;3785;52.260;4.728;2023-04-25T05:15:46;5.55;;;1.10;;
7487;SDS011;3785;52.260;4.728;2023-04-25T05:19:07;2.45;;;0.80;;
7487;SDS011;3785;52.260;4.728;2023-04-25T05:22:27;2.38;;;0.88;;
7487;SDS011;3785;52.260;4.728;2023-04-25T05:25:48;3.40;;;1.23;;
7487;SDS011;3785;52.260;4.728;2023-04-25T05:29:08;4.60;;;0.98;;
7487;SDS011;3785;52.260;4.728;2023-04-25T05:32:29;3.70;;;1.13;;
7487;SDS011;3785;52.260;4.728;2023-04-25T05:35:50;3.03;;;1.00;;
7487;SDS011;3785;52.260;4.728;2023-04-25T05:39:10;2.67;;;1.08;;
7487;SDS011;3785;52.260;4.728;2023-04-25T05:42:31;4.20;;;0.90;;
7487;SDS011;3785;52.260;4.728;2023-04-25T05:45:51;2.53;;;1.27;;
7487;SDS011;3785;52.260;4.728;2023-04-25T05:49:12;3.97;;;1.25;;
7487;SDS011;3785;52.260;4.728;2023-04-25T05:52:32;5.28;;;1.40;;
7487;SDS011;3785;52.260;4.728;2023-04-25T05:55:53;6.03;;;1.25;;
7487;SDS011;3785;52.260;4.728;2023-04-25T05:59:13;3.88;;;1.13;;
7487;SDS011;3785;52.260;4.728;2023-04-25T06:02:34;1.50;;;0.73;;
7487;SDS011;3785;52.260;4.728;2023-04-25T06:05:55;5.65;;;1.02;;
7487;SDS011;3785;52.260;4.728;2023-04-25T06:09:16;3.75;;;1.00;;
7487;SDS011;3785;52.260;4.728;2023-04-25T06:12:36;4.85;;;0.90;;
7487;SDS011;3785;52.260;4.728;2023-04-25T06:15:58;6.93;;;1.48;;
7487;SDS011;3785;52.260;4.728;2023-04-25T06:19:19;6.18;;;1.33;;
7487;SDS011;3785;52.260;4.728;2023-04-25T06:22:39;4.55;;;1.25;;
7487;SDS011;3785;52.260;4.728;2023-04-25T06:26:00;3.13;;;0.60;;
7487;SDS011;3785;52.260;4.728;2023-04-25T06:29:20;2.13;;;0.80;;
7487;SDS011;3785;52.260;4.728;2023-04-25T06:32:41;1.98;;;0.55;;
7487;SDS011;3785;52.260;4.728;2023-04-25T06:36:02;2.40;;;0.65;;
7487;SDS011;3785;52.260;4.728;2023-04-25T06:39:23;4.20;;;0.93;;
7487;SDS011;3785;52.260;4.728;2023-04-25T06:42:44;3.65;;;1.10;;
7487;SDS011;3785;52.260;4.728;2023-04-25T06:46:05;4.18;;;0.63;;
7487;SDS011;3785;52.260;4.728;2023-04-25T06:49:25;0.57;;;0.20;;
7487;SDS011;3785;52.260;4.728;2023-04-25T06:52:46;0.73;;;0.43;;
7487;SDS011;3785;52.260;4.728;2023-04-25T06:56:06;4.25;;;0.68;;
7487;SDS011;3785;52.260;4.728;2023-04-25T06:59:27;2.05;;;0.45;;
7487;SDS011;3785;52.260;4.728;2023-04-25T07:02:47;2.85;;;0.68;;
7487;SDS011;3785;52.260;4.728;2023-04-25T07:06:08;2.40;;;0.50;;
7487;SDS011;3785;52.260;4.728;2023-04-25T07:09:29;1.77;;;0.50;;
7487;SDS011;3785;52.260;4.728;2023-04-25T07:12:50;2.60;;;0.82;;
7487;SDS011;3785;52.260;4.728;2023-04-25T07:16:10;3.42;;;1.00;;
7487;SDS011;3785;52.260;4.728;2023-04-25T07:19:31;1.27;;;0.70;;
7487;SDS011;3785;52.260;4.728;2023-04-25T07:22:53;1.20;;;0.50;;
7487;SDS011;3785;52.260;4.728;2023-04-25T07:26:13;2.17;;;0.80;;
7487;SDS011;3785;52.260;4.728;2023-04-25T07:29:34;2.05;;;0.63;;
7487;SDS011;3785;52.260;4.728;2023-04-25T07:32:57;3.97;;;0.85;;
7487;SDS011;3785;52.260;4.728;2023-04-25T07:36:17;1.70;;;0.90;;
7487;SDS011;3785;52.260;4.728;2023-04-25T07:39:38;5.45;;;0.85;;
7487;SDS011;3785;52.260;4.728;2023-04-25T07:42:58;1.00;;;0.68;;
7487;SDS011;3785;52.260;4.728;2023-04-25T07:46:19;1.50;;;0.40;;
7487;SDS011;3785;52.260;4.728;2023-04-25T07:49:40;4.50;;;0.57;;
7487;SDS011;3785;52.260;4.728;2023-04-25T07:53:00;3.65;;;0.88;;
7487;SDS011;3785;52.260;4.728;2023-04-25T07:56:21;4.28;;;0.88;;
7487;SDS011;3785;52.260;4.728;2023-04-25T07:59:42;2.65;;;0.85;;
7487;SDS011;3785;52.260;4.728;2023-04-25T08:03:03;3.47;;;0.65;;
7487;SDS011;3785;52.260;4.728;2023-04-25T08:06:23;3.65;;;1.20;;
7487;SDS011;3785;52.260;4.728;2023-04-25T08:09:44;3.00;;;0.80;;
7487;SDS011;3785;52.260;4.728;2023-04-25T08:13:04;2.13;;;0.60;;
7487;SDS011;3785;52.260;4.728;2023-04-25T08:16:25;3.78;;;0.73;;
7487;SDS011;3785;52.260;4.728;2023-04-25T08:19:46;2.75;;;0.73;;
7487;SDS011;3785;52.260;4.728;2023-04-25T08:23:06;1.08;;;0.43;;
7487;SDS011;3785;52.260;4.728;2023-04-25T08:26:28;4.95;;;0.70;;
7487;SDS011;3785;52.260;4.728;2023-04-25T08:29:49;3.30;;;0.52;;
7487;SDS011;3785;52.260;4.728;2023-04-25T08:33:10;0.95;;;0.30;;
7487;SDS011;3785;52.260;4.728;2023-04-25T08:36:31;3.78;;;0.65;;
7487;SDS011;3785;52.260;4.728;2023-04-25T08:39:51;1.58;;;0.60;;
7487;SDS011;3785;52.260;4.728;2023-04-25T08:43:13;0.95;;;0.38;;
7487;SDS011;3785;52.260;4.728;2023-04-25T08:46:34;1.88;;;0.80;;
7487;SDS011;3785;52.260;4.728;2023-04-25T08:49:57;3.47;;;0.70;;
7487;SDS011;3785;52.260;4.728;2023-04-25T08:53:23;2.22;;;0.50;;
7487;SDS011;3785;52.260;4.728;2023-04-25T08:56:47;1.60;;;0.50;;
7487;SDS011;3785;52.260;4.728;2023-04-25T09:00:08;0.95;;;0.50;;
7487;SDS011;3785;52.260;4.728;2023-04-25T09:03:30;1.00;;;0.43;;
7487;SDS011;3785;52.260;4.728;2023-04-25T09:06:51;0.55;;;0.22;;
7487;SDS011;3785;52.260;4.728;2023-04-25T09:10:12;1.00;;;0.43;;
7487;SDS011;3785;52.260;4.728;2023-04-25T09:13:32;0.85;;;0.40;;
7487;SDS011;3785;52.260;4.728;2023-04-25T09:20:16;1.17;;;0.47;;
7487;SDS011;3785;52.260;4.728;2023-04-25T09:23:44;2.05;;;0.60;;
7487;SDS011;3785;52.260;4.728;2023-04-25T09:27:10;1.17;;;0.40;;
7487;SDS011;3785;52.260;4.728;2023-04-25T09:30:33;2.35;;;0.50;;
7487;SDS011;3785;52.260;4.728;2023-04-25T09:34:01;2.42;;;0.65;;
7487;SDS011;3785;52.260;4.728;2023-04-25T09:37:22;2.95;;;0.90;;
7487;SDS011;3785;52.260;4.728;2023-04-25T09:40:45;1.80;;;0.70;;
7487;SDS011;3785;52.260;4.728;2023-04-25T09:44:07;1.65;;;0.40;;
7487;SDS011;3785;52.260;4.728;2023-04-25T09:47:27;3.88;;;0.57;;
7487;SDS011;3785;52.260;4.728;2023-04-25T09:51:03;2.58;;;0.60;;
7487;SDS011;3785;52.260;4.728;2023-04-25T09:54:24;4.30;;;0.60;;
7487;SDS011;3785;52.260;4.728;2023-04-25T09:57:45;2.40;;;0.90;;
7487;SDS011;3785;52.260;4.728;2023-04-25T10:01:10;3.70;;;0.75;;
7487;SDS011;3785;52.260;4.728;2023-04-25T10:04:30;2.00;;;0.90;;
7487;SDS011;3785;52.260;4.728;2023-04-25T10:07:55;3.17;;;0.50;;
7487;SDS011;3785;52.260;4.728;2023-04-25T10:11:16;2.67;;;0.90;;
7487;SDS011;3785;52.260;4.728;2023-04-25T10:14:37;1.65;;;0.75;;
7487;SDS011;3785;52.260;4.728;2023-04-25T10:17:58;2.65;;;0.95;;
7487;SDS011;3785;52.260;4.728;2023-04-25T10:21:19;2.67;;;0.65;;
7487;SDS011;3785;52.260;4.728;2023-04-25T10:24:40;2.60;;;0.68;;
7487;SDS011;3785;52.260;4.728;2023-04-25T10:28:03;2.42;;;0.75;;
7487;SDS011;3785;52.260;4.728;2023-04-25T10:31:23;2.00;;;0.63;;
7487;SDS011;3785;52.260;4.728;2023-04-25T10:34:44;3.28;;;0.77;;
7487;SDS011;3785;52.260;4.728;2023-04-25T10:38:09;2.08;;;0.80;;
7487;SDS011;3785;52.260;4.728;2023-04-25T10:41:30;2.40;;;0.65;;
7487;SDS011;3785;52.260;4.728;2023-04-25T10:45:00;4.03;;;0.80;;
7487;SDS011;3785;52.260;4.728;2023-04-25T10:48:26;5.00;;;0.90;;
7487;SDS011;3785;52.260;4.728;2023-04-25T10:51:50;3.25;;;0.90;;
7487;SDS011;3785;52.260;4.728;2023-04-25T10:55:10;1.83;;;0.70;;
7487;SDS011;3785;52.260;4.728;2023-04-25T10:58:31;3.15;;;0.60;;
7487;SDS011;3785;52.260;4.728;2023-04-25T11:01:52;4.25;;;0.85;;
7487;SDS011;3785;52.260;4.728;2023-04-25T11:08:48;1.73;;;0.52;;
7487;SDS011;3785;52.260;4.728;2023-04-25T11:12:10;4.28;;;0.82;;
7487;SDS011;3785;52.260;4.728;2023-04-25T11:15:31;4.10;;;1.20;;
7487;SDS011;3785;52.260;4.728;2023-04-25T11:18:52;1.58;;;0.50;;
7487;SDS011;3785;52.260;4.728;2023-04-25T11:22:13;1.20;;;0.50;;
7487;SDS011;3785;52.260;4.728;2023-04-25T11:25:33;2.40;;;0.80;;
7487;SDS011;3785;52.260;4.728;2023-04-25T11:29:00;3.70;;;1.80;;
7487;SDS011;3785;52.260;4.728;2023-04-25T11:32:20;1.23;;;0.55;;
7487;SDS011;3785;52.260;4.728;2023-04-25T11:35:41;2.33;;;0.73;;
7487;SDS011;3785;52.260;4.728;2023-04-25T11:39:01;2.70;;;1.00;;
7487;SDS011;3785;52.260;4.728;2023-04-25T11:42:22;3.08;;;0.70;;
7487;SDS011;3785;52.260;4.728;2023-04-25T11:45:45;1.20;;;0.50;;
7487;SDS011;3785;52.260;4.728;2023-04-25T11:49:07;4.35;;;1.15;;
7487;SDS011;3785;52.260;4.728;2023-04-25T11:52:37;1.58;;;0.75;;
7487;SDS011;3785;52.260;4.728;2023-04-25T11:55:59;2.17;;;0.80;;
7487;SDS011;3785;52.260;4.728;2023-04-25T11:59:23;6.38;;;1.05;;
7487;SDS011;3785;52.260;4.728;2023-04-25T12:02:55;4.53;;;0.98;;
7487;SDS011;3785;52.260;4.728;2023-04-25T12:06:17;3.33;;;0.60;;
7487;SDS011;3785;52.260;4.728;2023-04-25T12:09:38;2.08;;;0.60;;
7487;SDS011;3785;52.260;4.728;2023-04-25T12:12:59;1.67;;;0.40;;
7487;SDS011;3785;52.260;4.728;2023-04-25T12:16:20;2.22;;;0.60;;
7487;SDS011;3785;52.260;4.728;2023-04-25T12:19:40;1.10;;;0.30;;
7487;SDS011;3785;52.260;4.728;2023-04-25T12:23:06;2.67;;;0.73;;
7487;SDS011;3785;52.260;4.728;2023-04-25T12:26:45;1.95;;;0.60;;
7487;SDS011;3785;52.260;4.728;2023-04-25T12:30:06;2.45;;;0.77;;
7487;SDS011;3785;52.260;4.728;2023-04-25T12:33:28;1.95;;;0.82;;
7487;SDS011;3785;52.260;4.728;2023-04-25T12:36:56;2.03;;;0.75;;
7487;SDS011;3785;52.260;4.728;2023-04-25T12:40:17;3.28;;;0.40;;
7487;SDS011;3785;52.260;4.728;2023-04-25T12:43:37;1.40;;;0.50;;
7487;SDS011;3785;52.260;4.728;2023-04-25T12:46:58;2.67;;;0.80;;
7487;SDS011;3785;52.260;4.728;2023-04-25T12:50:19;5.25;;;0.77;;
7487;SDS011;3785;52.260;4.728;2023-04-25T12:53:40;2.80;;;1.02;;
7487;SDS011;3785;52.260;4.728;2023-04-25T12:57:01;2.35;;;0.70;;
7487;SDS011;3785;52.260;4.728;2023-04-25T13:00:22;3.00;;;0.77;;
7487;SDS011;3785;52.260;4.728;2023-04-25T13:03:43;3.20;;;0.68;;
7487;SDS011;3785;52.260;4.728;2023-04-25T13:07:04;3.00;;;0.90;;
7487;SDS011;3785;52.260;4.728;2023-04-25T13:10:25;2.65;;;0.60;;
7487;SDS011;3785;52.260;4.728;2023-04-25T13:13:46;2.72;;;0.93;;
7487;SDS011;3785;52.260;4.728;2023-04-25T13:17:06;1.65;;;0.80;;
7487;SDS011;3785;52.260;4.728;2023-04-25T13:20:27;3.00;;;1.13;;
7487;SDS011;3785;52.260;4.728;2023-04-25T13:23:47;3.67;;;0.75;;
7487;SDS011;3785;52.260;4.728;2023-04-25T13:27:08;2.83;;;0.93;;
7487;SDS011;3785;52.260;4.728;2023-04-25T13:30:28;2.28;;;0.88;;
7487;SDS011;3785;52.260;4.728;2023-04-25T13:33:49;1.60;;;0.70;;
7487;SDS011;3785;52.260;4.728;2023-04-25T13:37:10;1.83;;;0.73;;
7487;SDS011;3785;52.260;4.728;2023-04-25T13:40:31;1.83;;;0.73;;
7487;SDS011;3785;52.260;4.728;2023-04-25T13:43:52;0.98;;;0.38;;
7487;SDS011;3785;52.260;4.728;2023-04-25T13:47:12;2.85;;;1.00;;
7487;SDS011;3785;52.260;4.728;2023-04-25T13:50:33;1.80;;;0.65;;
7487;SDS011;3785;52.260;4.728;2023-04-25T13:53:53;2.63;;;0.60;;
7487;SDS011;3785;52.260;4.728;2023-04-25T13:57:14;1.75;;;0.77;;
7487;SDS011;3785;52.260;4.728;2023-04-25T14:00:36;3.13;;;0.77;;
7487;SDS011;3785;52.260;4.728;2023-04-25T14:03:58;4.22;;;0.70;;
7487;SDS011;3785;52.260;4.728;2023-04-25T14:07:19;1.67;;;0.70;;
7487;SDS011;3785;52.260;4.728;2023-04-25T14:10:40;1.75;;;0.50;;
7487;SDS011;3785;52.260;4.728;2023-04-25T14:14:01;1.45;;;0.50;;
7487;SDS011;3785;52.260;4.728;2023-04-25T14:17:22;2.17;;;0.43;;
7487;SDS011;3785;52.260;4.728;2023-04-25T14:20:42;0.88;;;0.65;;
7487;SDS011;3785;52.260;4.728;2023-04-25T14:24:03;2.22;;;1.00;;
7487;SDS011;3785;52.260;4.728;2023-04-25T14:27:24;3.15;;;0.90;;
7487;SDS011;3785;52.260;4.728;2023-04-25T14:30:46;3.22;;;0.65;;
7487;SDS011;3785;52.260;4.728;2023-04-25T14:34:07;3.67;;;0.75;;
7487;SDS011;3785;52.260;4.728;2023-04-25T14:37:28;3.03;;;1.00;;
7487;SDS011;3785;52.260;4.728;2023-04-25T14:40:49;4.18;;;1.05;;
7487;SDS011;3785;52.260;4.728;2023-04-25T14:44:09;1.98;;;0.68;;
7487;SDS011;3785;52.260;4.728;2023-04-25T14:47:30;1.27;;;0.60;;
7487;SDS011;3785;52.260;4.728;2023-04-25T14:50:51;3.60;;;0.68;;
7487;SDS011;3785;52.260;4.728;2023-04-25T14:54:12;4.45;;;0.90;;
7487;SDS011;3785;52.260;4.728;2023-04-25T14:57:33;2.97;;;0.50;;
7487;SDS011;3785;52.260;4.728;2023-04-25T15:00:54;1.10;;;0.52;;
7487;SDS011;3785;52.260;4.728;2023-04-25T15:04:15;2.20;;;0.73;;
7487;SDS011;3785;52.260;4.728;2023-04-25T15:07:38;1.58;;;0.60;;
7487;SDS011;3785;52.260;4.728;2023-04-25T15:11:00;2.28;;;0.60;;
7487;SDS011;3785;52.260;4.728;2023-04-25T15:14:22;1.27;;;0.50;;
7487;SDS011;3785;52.260;4.728;2023-04-25T15:17:42;2.42;;;0.40;;
7487;SDS011;3785;52.260;4.728;2023-04-25T15:21:03;1.30;;;0.50;;
7487;SDS011;3785;52.260;4.728;2023-04-25T15:24:24;1.42;;;0.47;;
7487;SDS011;3785;52.260;4.728;2023-04-25T15:27:45;1.73;;;0.45;;
7487;SDS011;3785;52.260;4.728;2023-04-25T15:31:08;2.67;;;0.73;;
7487;SDS011;3785;52.260;4.728;2023-04-25T15:34:28;1.63;;;0.35;;
7487;SDS011;3785;52.260;4.728;2023-04-25T15:37:49;2.25;;;0.40;;
7487;SDS011;3785;52.260;4.728;2023-04-25T15:41:10;1.67;;;0.63;;
7487;SDS011;3785;52.260;4.728;2023-04-25T15:44:32;2.13;;;0.60;;
7487;SDS011;3785;52.260;4.728;2023-04-25T15:47:54;2.65;;;0.77;;
7487;SDS011;3785;52.260;4.728;2023-04-25T15:51:15;2.85;;;0.70;;
7487;SDS011;3785;52.260;4.728;2023-04-25T15:54:36;0.80;;;0.43;;
7487;SDS011;3785;52.260;4.728;2023-04-25T15:57:56;2.15;;;0.60;;
7487;SDS011;3785;52.260;4.728;2023-04-25T16:01:17;2.47;;;0.82;;
7487;SDS011;3785;52.260;4.728;2023-04-25T16:04:37;2.08;;;0.55;;
7487;SDS011;3785;52.260;4.728;2023-04-25T16:07:58;2.22;;;0.70;;
7487;SDS011;3785;52.260;4.728;2023-04-25T16:11:19;2.85;;;0.68;;
7487;SDS011;3785;52.260;4.728;2023-04-25T16:14:40;1.80;;;0.45;;
7487;SDS011;3785;52.260;4.728;2023-04-25T16:18:00;1.80;;;0.70;;
7487;SDS011;3785;52.260;4.728;2023-04-25T16:21:21;3.85;;;0.80;;
7487;SDS011;3785;52.260;4.728;2023-04-25T16:24:42;1.55;;;0.57;;
7487;SDS011;3785;52.260;4.728;2023-04-25T16:28:03;2.00;;;0.82;;
7487;SDS011;3785;52.260;4.728;2023-04-25T16:31:24;4.47;;;0.80;;
7487;SDS011;3785;52.260;4.728;2023-04-25T16:34:45;3.65;;;0.80;;
7487;SDS011;3785;52.260;4.728;2023-04-25T16:38:05;3.50;;;0.73;;
7487;SDS011;3785;52.260;4.728;2023-04-25T16:41:26;4.10;;;0.70;;
7487;SDS011;3785;52.260;4.728;2023-04-25T16:44:47;3.80;;;1.13;;
7487;SDS011;3785;52.260;4.728;2023-04-25T16:48:07;4.45;;;0.70;;
7487;SDS011;3785;52.260;4.728;2023-04-25T16:51:28;4.88;;;1.23;;
7487;SDS011;3785;52.260;4.728;2023-04-25T16:54:48;4.38;;;1.00;;
7487;SDS011;3785;52.260;4.728;2023-04-25T16:58:09;2.42;;;0.80;;
7487;SDS011;3785;52.260;4.728;2023-04-25T17:01:33;2.33;;;0.90;;
7487;SDS011;3785;52.260;4.728;2023-04-25T17:04:55;2.33;;;0.98;;
7487;SDS011;3785;52.260;4.728;2023-04-25T17:08:15;2.35;;;0.82;;
7487;SDS011;3785;52.260;4.728;2023-04-25T17:11:36;2.35;;;1.00;;
7487;SDS011;3785;52.260;4.728;2023-04-25T17:14:57;2.97;;;1.00;;
7487;SDS011;3785;52.260;4.728;2023-04-25T17:18:19;3.05;;;1.02;;
7487;SDS011;3785;52.260;4.728;2023-04-25T17:21:39;1.42;;;0.77;;
7487;SDS011;3785;52.260;4.728;2023-04-25T17:25:00;3.55;;;1.02;;
7487;SDS011;3785;52.260;4.728;2023-04-25T17:28:20;2.38;;;0.90;;
7487;SDS011;3785;52.260;4.728;2023-04-25T17:31:41;2.72;;;0.98;;
7487;SDS011;3785;52.260;4.728;2023-04-25T17:35:03;4.10;;;1.30;;
7487;SDS011;3785;52.260;4.728;2023-04-25T17:38:24;4.18;;;1.08;;
7487;SDS011;3785;52.260;4.728;2023-04-25T17:41:45;3.95;;;1.20;;
7487;SDS011;3785;52.260;4.728;2023-04-25T17:45:06;3.55;;;1.05;;
7487;SDS011;3785;52.260;4.728;2023-04-25T17:48:27;3.13;;;0.80;;
7487;SDS011;3785;52.260;4.728;2023-04-25T17:51:47;2.42;;;0.85;;
7487;SDS011;3785;52.260;4.728;2023-04-25T17:55:08;1.70;;;0.90;;
7487;SDS011;3785;52.260;4.728;2023-04-25T17:58:28;2.28;;;0.80;;
7487;SDS011;3785;52.260;4.728;2023-04-25T18:01:49;1.95;;;0.70;;
7487;SDS011;3785;52.260;4.728;2023-04-25T18:05:10;3.65;;;0.90;;
7487;SDS011;3785;52.260;4.728;2023-04-25T18:08:31;2.60;;;0.90;;
7487;SDS011;3785;52.260;4.728;2023-04-25T18:11:51;1.52;;;0.80;;
7487;SDS011;3785;52.260;4.728;2023-04-25T18:15:12;2.20;;;0.90;;
7487;SDS011;3785;52.260;4.728;2023-04-25T18:18:33;3.55;;;1.40;;
7487;SDS011;3785;52.260;4.728;2023-04-25T18:21:55;1.70;;;0.88;;
7487;SDS011;3785;52.260;4.728;2023-04-25T18:25:15;3.42;;;1.23;;
7487;SDS011;3785;52.260;4.728;2023-04-25T18:28:36;2.15;;;0.98;;
7487;SDS011;3785;52.260;4.728;2023-04-25T18:31:57;1.95;;;1.10;;
7487;SDS011;3785;52.260;4.728;2023-04-25T18:35:17;1.30;;;0.63;;
7487;SDS011;3785;52.260;4.728;2023-04-25T18:38:38;1.42;;;0.95;;
7487;SDS011;3785;52.260;4.728;2023-04-25T18:41:58;2.85;;;1.13;;
7487;SDS011;3785;52.260;4.728;2023-04-25T18:45:19;3.28;;;1.00;;
7487;SDS011;3785;52.260;4.728;2023-04-25T18:48:40;1.55;;;0.80;;
7487;SDS011;3785;52.260;4.728;2023-04-25T18:52:02;2.28;;;0.80;;
7487;SDS011;3785;52.260;4.728;2023-04-25T18:55:22;1.77;;;0.88;;
7487;SDS011;3785;52.260;4.728;2023-04-25T18:58:43;4.03;;;1.13;;
7487;SDS011;3785;52.260;4.728;2023-04-25T19:02:03;4.00;;;1.40;;
7487;SDS011;3785;52.260;4.728;2023-04-25T19:05:24;3.15;;;1.20;;
7487;SDS011;3785;52.260;4.728;2023-04-25T19:08:45;2.80;;;1.27;;
7487;SDS011;3785;52.260;4.728;2023-04-25T19:12:06;3.20;;;1.42;;
7487;SDS011;3785;52.260;4.728;2023-04-25T19:15:26;4.55;;;1.55;;
7487;SDS011;3785;52.260;4.728;2023-04-25T19:18:47;5.38;;;1.83;;
7487;SDS011;3785;52.260;4.728;2023-04-25T19:22:10;1.98;;;1.27;;
7487;SDS011;3785;52.260;4.728;2023-04-25T19:25:31;4.65;;;1.30;;
7487;SDS011;3785;52.260;4.728;2023-04-25T19:32:29;6.00;;;1.58;;
7487;SDS011;3785;52.260;4.728;2023-04-25T19:35:50;3.35;;;1.73;;
7487;SDS011;3785;52.260;4.728;2023-04-25T19:39:11;3.10;;;1.90;;
7487;SDS011;3785;52.260;4.728;2023-04-25T19:42:32;3.72;;;1.80;;
7487;SDS011;3785;52.260;4.728;2023-04-25T19:45:52;5.85;;;2.05;;
7487;SDS011;3785;52.260;4.728;2023-04-25T19:49:13;2.67;;;1.48;;
7487;SDS011;3785;52.260;4.728;2023-04-25T19:52:34;3.17;;;2.13;;
7487;SDS011;3785;52.260;4.728;2023-04-25T19:55:55;2.83;;;1.90;;
7487;SDS011;3785;52.260;4.728;2023-04-25T19:59:16;5.55;;;2.33;;
7487;SDS011;3785;52.260;4.728;2023-04-25T20:02:37;5.28;;;1.92;;
7487;SDS011;3785;52.260;4.728;2023-04-25T20:05:58;4.65;;;1.85;;
7487;SDS011;3785;52.260;4.728;2023-04-25T20:09:18;4.93;;;1.90;;
7487;SDS011;3785;52.260;4.728;2023-04-25T20:12:42;5.05;;;1.90;;
7487;SDS011;3785;52.260;4.728;2023-04-25T20:16:03;8.93;;;4.20;;
7487;SDS011;3785;52.260;4.728;2023-04-25T20:19:24;5.25;;;2.97;;
7487;SDS011;3785;52.260;4.728;2023-04-25T20:22:44;5.28;;;3.05;;
7487;SDS011;3785;52.260;4.728;2023-04-25T20:26:05;7.68;;;3.28;;
7487;SDS011;3785;52.260;4.728;2023-04-25T20:29:26;4.03;;;2.00;;
7487;SDS011;3785;52.260;4.728;2023-04-25T20:32:46;4.63;;;1.73;;
7487;SDS011;3785;52.260;4.728;2023-04-25T20:36:07;3.35;;;1.50;;
7487;SDS011;3785;52.260;4.728;2023-04-25T20:39:27;4.93;;;1.70;;
7487;SDS011;3785;52.260;4.728;2023-04-25T20:42:48;3.63;;;1.67;;
7487;SDS011;3785;52.260;4.728;2023-04-25T20:46:10;4.18;;;1.50;;
7487;SDS011;3785;52.260;4.728;2023-04-25T20:49:31;3.75;;;1.90;;
7487;SDS011;3785;52.260;4.728;2023-04-25T20:52:52;3.78;;;1.63;;
7487;SDS011;3785;52.260;4.728;2023-04-25T20:56:12;5.10;;;1.83;;
7487;SDS011;3785;52.260;4.728;2023-04-25T20:59:33;2.35;;;1.52;;